STAK1: Blue River, Stanley, KS

Data processed at Tue May 21 2019 23:50


All information presented herein is the property of the government of the United States of America and may be revised or deleted at any time without prior notice.
Dissemination of this information without the expressed written consent of the Public Affairs Office, Tulsa District U.S. Army Corps of Engineers is strictly prohibited.
These data are gathered electronically and, as presented, have not undergone any form of quality control. These data are not guaranteed to be valid or correct.
Go to home page.
Go to station list.
Go to home page.

Downstream station:


Previous Day
Next Day
Current Day
    
SHEF ID:       STAK1     BLUE R NR STANLEY, KS
STATION TYPE:  

               PRECIP     STAGE  RIV-FLOW  BAT-LOAD
                   in        ft       cfs      volt
              Ccp-Rev   Ccp-Rev   Ccp-Rev   Ccp-Rev
(US/Central)
05/21 00:00      0.00     13.32      3646     12.60
05/21 01:00      0.00     14.17      4300     12.65
05/21 02:00      0.00     14.41      4494     12.65
05/21 03:00      0.00     14.25      4364     12.60
05/21 04:00      0.00     13.62      3871     12.54
05/21 05:00      0.00     12.64      3160     12.54
05/21 06:00      0.00     11.65      2514     12.60
05/21 07:00      0.00     10.87      2055     12.60
05/21 08:00      0.00     10.45      1827     12.54
05/21 09:00      0.00     10.31      1754     12.60
05/21 10:00      0.00     10.40      1801     12.60
05/21 11:00      0.00     12.58      3119     12.65
05/21 12:00      0.00     13.97      4142     12.65
05/21 13:00      0.00     14.38      4470     12.83
05/21 14:00      0.00     14.01      4173     13.18
05/21 15:00      0.00     13.34      3661     12.60
05/21 16:00      0.00     12.35      2964     13.07
05/21 17:00      0.00     11.13      2203     13.18
05/21 18:00      0.00     10.02      1607     12.95
05/21 19:00      0.00      9.33      1282     12.83
05/21 20:00      0.00      8.89      1094     12.77
05/21 21:00      0.00      8.54       954     12.71
05/21 22:00      0.00      8.19       824     12.65
05/21 23:00      0.00      7.93       735     12.65